WAJJ Airport Information

Runway Information
Runway 12 Length 7161 ft width 148 ft
Elevation 292 ft Threshold 0 ft Heading 127
Runway 30 Length 7161 ft Width 148 ft
Elevation 289 ft Threshold 0 ft Heading 307
Airport Frequencies
Type APP Name JAYAPURA A Frequency 119.1 MHZ
Type ATIS Name ATIS Frequency 128.8 MHZ
Type INFO Name JAYAPURA I Frequency 295.6 MHZ
Type TWR Name TWR Frequency 118.1 MHZ
Airport Navaids
Type VOR-DME Name Jayapura Frequency 116200 KHZ
Type NDB Name Jayapura Frequency 395 KHZ
Airport Weather Information & NOTAM
ADDS - METARS form results

(0321 UTC 07 July 2020)
Data provider http://aviationweather.gov/metar/data/
 
METAR text: WAJJ 070300Z 14007KT 9999 FEW013 32/23 Q1009 NOSIG
Conditions at: WAJJ (JAYAPURA/SENTANI, ID) observed 0300 UTC 07 July 2020
Temperature: 32.0°C (90°F)
Dewpoint: 23.0°C (73°F) [RH = 59%]
Pressure (altimeter): 29.79 inches Hg (1009.0 mb)
Winds: from the SE (140 degrees) at 8 MPH (7 knots; 3.6 m/s)
Visibility: 6 or more miles (10+ km)
Ceiling: at least 12,000 feet AGL
Clouds: few clouds at 1300 feet AGL
Weather: no significant weather observed at this time

METAR text: WAJJ 070230Z 15006KT 9999 FEW013 31/23 Q1009 NOSIG
Conditions at: WAJJ (JAYAPURA/SENTANI, ID) observed 0230 UTC 07 July 2020
Temperature: 31.0°C (88°F)
Dewpoint: 23.0°C (73°F) [RH = 63%]
Pressure (altimeter): 29.79 inches Hg (1009.0 mb)
Winds: from the SSE (150 degrees) at 7 MPH (6 knots; 3.1 m/s)
Visibility: 6 or more miles (10+ km)
Ceiling: at least 12,000 feet AGL
Clouds: few clouds at 1300 feet AGL
Weather: no significant weather observed at this time